Time;durP1;ratioP1;P1;durP2;ratioP2;P2;SDS_P1;SDS_P2;PMS_P1;PMS_P2;Temp;Humidity;BMP_temperature;BMP_pressure;BME280_temperature;BME280_humidity;BME280_pressure;Samples;Min_cycle;Max_cycle;Signal;HPM_P1;HPM_P2
2024/02/05 00:00:43;;;;;;;1.33;0.60;;;16.00;93.30;;;;;;5015050;28;20026;-46
2024/02/05 00:03:09;;;;;;;0.70;0.60;;;16.00;93.30;;;;;;5015316;28;20022;-45
2024/02/05 00:05:36;;;;;;;0.90;0.50;;;16.00;93.30;;;;;;5015287;28;20115;-44
2024/02/05 00:08:03;;;;;;;0.80;0.52;;;16.00;93.30;;;;;;5014905;28;20057;-44
2024/02/05 00:10:29;;;;;;;0.95;0.65;;;16.00;93.30;;;;;;5015132;28;20038;-46
2024/02/05 00:12:55;;;;;;;0.85;0.70;;;16.00;93.30;;;;;;5015121;28;20033;-45
2024/02/05 00:15:20;;;;;;;0.88;0.50;;;16.00;93.30;;;;;;5015479;28;20037;-45
2024/02/05 00:17:46;;;;;;;0.65;0.50;;;16.00;93.30;;;;;;5015068;28;20464;-42
2024/02/05 00:20:12;;;;;;;0.70;0.50;;;16.00;93.30;;;;;;5015352;28;20022;-46
2024/02/05 00:22:38;;;;;;;0.85;0.50;;;16.00;93.40;;;;;;5015222;28;20022;-46
2024/02/05 00:25:05;;;;;;;0.70;0.52;;;16.00;93.40;;;;;;5014797;28;20038;-42
2024/02/05 00:27:31;;;;;;;0.80;0.52;;;16.00;93.40;;;;;;5014776;28;20113;-45
2024/02/05 00:29:56;;;;;;;0.70;0.45;;;16.00;93.40;;;;;;5014821;28;20110;-45
2024/02/05 00:32:22;;;;;;;0.80;0.50;;;16.00;93.40;;;;;;5014649;28;20500;-44
2024/02/05 00:34:47;;;;;;;0.85;0.50;;;16.00;93.40;;;;;;5014451;28;20030;-46
2024/02/05 00:37:13;;;;;;;1.00;0.40;;;16.00;93.40;;;;;;5014511;28;20028;-44
2024/02/05 00:39:39;;;;;;;1.30;0.60;;;16.00;93.40;;;;;;5014671;28;20101;-46
2024/02/05 00:42:04;;;;;;;0.95;0.60;;;15.90;93.30;;;;;;5014439;28;20034;-46
2024/02/05 00:44:30;;;;;;;0.57;0.40;;;16.00;93.40;;;;;;5014426;28;20033;-45
2024/02/05 00:46:55;;;;;;;0.70;0.50;;;15.90;93.30;;;;;;5015046;28;20096;-44
2024/02/05 00:49:21;;;;;;;0.30;0.25;;;15.90;93.40;;;;;;5014515;28;20032;-45
2024/02/05 00:51:46;;;;;;;0.80;0.50;;;15.90;93.40;;;;;;5014486;28;20029;-44
2024/02/05 00:54:12;;;;;;;0.70;0.60;;;16.00;93.40;;;;;;5014290;28;20022;-46
2024/02/05 00:56:38;;;;;;;0.80;0.45;;;16.00;93.40;;;;;;5014584;28;20034;-45
2024/02/05 00:59:06;;;;;;;0.93;0.52;;;15.90;93.40;;;;;;5014790;28;20018;-44
2024/02/05 01:01:33;;;;;;;0.43;0.40;;;15.90;93.40;;;;;;5013841;28;20032;-44
2024/02/05 01:03:59;;;;;;;0.63;0.40;;;15.90;93.40;;;;;;5014142;28;20025;-42
2024/02/05 01:06:24;;;;;;;1.00;0.50;;;15.90;93.40;;;;;;5013966;28;20038;-44
2024/02/05 01:08:50;;;;;;;0.70;0.50;;;15.90;93.40;;;;;;5014255;28;20110;-45
2024/02/05 01:11:15;;;;;;;0.50;0.40;;;15.90;93.40;;;;;;5013868;28;20480;-46
2024/02/05 01:13:41;;;;;;;0.75;0.50;;;15.90;93.40;;;;;;5014073;28;20088;-41
2024/02/05 01:16:07;;;;;;;0.50;0.45;;;15.90;93.40;;;;;;5013566;28;20065;-45
2024/02/05 01:18:33;;;;;;;0.90;0.50;;;15.90;93.40;;;;;;5013593;28;20022;-44
2024/02/05 01:21:01;;;;;;;0.93;0.50;;;15.90;93.40;;;;;;5013721;28;20515;-41
2024/02/05 01:23:27;;;;;;;0.40;0.30;;;15.90;93.40;;;;;;5013693;28;20030;-44
2024/02/05 01:25:53;;;;;;;0.50;0.38;;;15.80;93.40;;;;;;5012174;28;20049;-46
2024/02/05 01:28:19;;;;;;;0.40;0.35;;;15.80;93.40;;;;;;5013647;28;20108;-44
2024/02/05 01:30:44;;;;;;;0.70;0.60;;;15.80;93.40;;;;;;5013407;28;20096;-43
2024/02/05 01:33:12;;;;;;;0.40;0.30;;;15.80;93.40;;;;;;5013467;28;20036;-45
2024/02/05 01:35:38;;;;;;;0.50;0.40;;;15.70;93.40;;;;;;5011832;28;20026;-46
2024/02/05 01:38:04;;;;;;;0.40;0.32;;;15.70;93.40;;;;;;5013245;28;20022;-45
2024/02/05 01:40:30;;;;;;;0.57;0.40;;;15.70;93.40;;;;;;5013203;28;20069;-46
2024/02/05 01:42:56;;;;;;;0.88;0.60;;;15.60;93.40;;;;;;5013191;28;20479;-46
2024/02/05 01:45:21;;;;;;;0.45;0.30;;;15.60;93.50;;;;;;5011731;28;20075;-45
2024/02/05 01:47:47;;;;;;;1.30;0.50;;;15.50;93.50;;;;;;5012981;28;20053;-45
2024/02/05 01:50:14;;;;;;;0.60;0.40;;;15.50;93.60;;;;;;5013144;28;20034;-46
2024/02/05 01:52:46;;;;;;;0.45;0.32;;;15.40;93.70;;;;;;5013248;28;20018;-42
2024/02/05 01:55:14;;;;;;;0.47;0.38;;;15.30;93.70;;;;;;5012882;28;20396;-46
2024/02/05 01:57:40;;;;;;;0.40;0.30;;;15.20;93.80;;;;;;5013318;28;20111;-45
2024/02/05 02:00:06;;;;;;;0.40;0.38;;;15.10;94.20;;;;;;5012999;28;20060;-45
2024/02/05 02:02:32;;;;;;;0.70;0.50;;;15.00;94.00;;;;;;5012916;28;20076;-44
2024/02/05 02:04:59;;;;;;;1.02;0.45;;;15.00;94.10;;;;;;5012906;28;20033;-45
2024/02/05 02:07:25;;;;;;;0.50;0.30;;;14.90;94.30;;;;;;5014094;28;20136;-46
2024/02/05 02:09:50;;;;;;;0.73;0.40;;;14.80;94.40;;;;;;5013241;28;20041;-46
2024/02/05 02:12:16;;;;;;;0.40;0.30;;;14.70;94.40;;;;;;5012199;28;20500;-45
2024/02/05 02:14:42;;;;;;;0.65;0.40;;;14.70;94.60;;;;;;5012446;28;20049;-44
2024/02/05 02:17:07;;;;;;;1.17;0.40;;;14.50;94.60;;;;;;5012794;28;20435;-42
2024/02/05 02:19:46;;;;;;;0.60;0.45;;;14.50;94.80;;;;;;5012429;28;20097;-45
2024/02/05 02:22:23;;;;;;;0.52;0.40;;;14.40;94.90;;;;;;5012623;28;20384;-45
2024/02/05 02:24:50;;;;;;;0.75;0.40;;;14.30;95.00;;;;;;5012109;28;20064;-44
2024/02/05 02:27:15;;;;;;;0.55;0.40;;;14.20;95.10;;;;;;5012467;28;20077;-45
2024/02/05 02:29:42;;;;;;;0.38;0.30;;;14.10;95.20;;;;;;5012405;28;20030;-45
2024/02/05 02:32:49;;;;;;;0.68;0.50;;;14.10;95.30;;;;;;5012310;28;20068;-45
2024/02/05 02:35:47;;;;;;;0.70;0.40;;;14.00;95.40;;;;;;5012553;28;20112;-46
2024/02/05 02:38:20;;;;;;;0.63;0.40;;;13.90;95.50;;;;;;5021584;28;20117;-44
2024/02/05 02:40:49;;;;;;;0.52;0.30;;;13.90;95.70;;;;;;5012187;28;20030;-46
2024/02/05 02:43:17;;;;;;;0.80;0.50;;;13.80;95.70;;;;;;5012534;28;20038;-45
2024/02/05 02:45:45;;;;;;;0.70;0.40;;;13.70;95.80;;;;;;5012119;28;20022;-44
2024/02/05 02:48:11;;;;;;;0.75;0.50;;;13.70;95.90;;;;;;5011950;28;20477;-44
2024/02/05 02:50:37;;;;;;;0.45;0.38;;;13.60;96.00;;;;;;5012053;28;20033;-45
2024/02/05 02:53:02;;;;;;;1.05;0.50;;;13.50;96.00;;;;;;5012379;28;20026;-45
2024/02/05 02:55:28;;;;;;;0.40;0.32;;;13.50;96.20;;;;;;5011914;28;20061;-44
2024/02/05 02:57:54;;;;;;;0.68;0.30;;;13.50;96.30;;;;;;5011969;28;20312;-45
2024/02/05 03:00:19;;;;;;;0.73;0.40;;;13.40;96.30;;;;;;5011800;28;20026;-44
2024/02/05 03:02:45;;;;;;;0.65;0.40;;;13.30;96.40;;;;;;5012203;28;20476;-46
2024/02/05 03:05:11;;;;;;;0.30;0.30;;;13.30;96.40;;;;;;5011875;28;20018;-46
2024/02/05 03:07:36;;;;;;;0.43;0.30;;;13.20;96.50;;;;;;5011822;28;20109;-44
2024/02/05 03:10:05;;;;;;;0.82;0.30;;;13.20;96.60;;;;;;5011918;28;20033;-45
2024/02/05 03:12:31;;;;;;;0.65;0.40;;;13.10;96.70;;;;;;5011970;28;20482;-44
2024/02/05 03:14:57;;;;;;;1.05;0.40;;;13.10;96.80;;;;;;5011953;28;20037;-46
2024/02/05 03:17:23;;;;;;;0.85;0.47;;;13.10;96.90;;;;;;5011889;28;20026;-45
2024/02/05 03:19:49;;;;;;;0.80;0.35;;;13.00;96.90;;;;;;5011823;28;20040;-45
2024/02/05 03:22:14;;;;;;;1.15;0.47;;;13.00;97.00;;;;;;5011896;28;20579;-42
2024/02/05 03:24:40;;;;;;;0.85;0.40;;;12.90;97.00;;;;;;5011248;28;20060;-43
2024/02/05 03:27:05;;;;;;;0.50;0.32;;;12.90;97.10;;;;;;5011955;28;20026;-45
2024/02/05 03:29:31;;;;;;;0.70;0.50;;;12.80;97.20;;;;;;5011763;28;20022;-44
2024/02/05 03:31:57;;;;;;;0.55;0.20;;;12.80;97.20;;;;;;5011712;28;20492;-43
2024/02/05 03:34:23;;;;;;;0.50;0.40;;;12.80;97.30;;;;;;5011528;28;20034;-45
2024/02/05 03:36:48;;;;;;;1.40;0.40;;;12.70;97.30;;;;;;5011511;28;20022;-40
2024/02/05 03:39:14;;;;;;;1.25;0.20;;;12.70;97.40;;;;;;5011801;28;20018;-44
2024/02/05 03:41:40;;;;;;;1.17;0.65;;;12.60;97.50;;;;;;5011600;28;20476;-44
2024/02/05 03:44:05;;;;;;;0.60;0.40;;;12.60;97.50;;;;;;5012020;28;20026;-45
2024/02/05 03:46:31;;;;;;;0.70;0.45;;;12.60;97.60;;;;;;5011406;28;20373;-44
2024/02/05 03:48:57;;;;;;;1.50;0.43;;;12.60;97.70;;;;;;5011546;28;20092;-45
2024/02/05 03:51:22;;;;;;;0.30;0.17;;;12.50;97.70;;;;;;5011336;28;20040;-46
2024/02/05 03:53:48;;;;;;;0.50;0.30;;;12.50;97.70;;;;;;5011332;28;20032;-44
2024/02/05 03:56:18;;;;;;;0.90;0.50;;;12.40;97.80;;;;;;5011967;28;20025;-43
2024/02/05 03:58:44;;;;;;;0.20;0.20;;;12.40;97.80;;;;;;5011545;28;20124;-46
2024/02/05 04:01:09;;;;;;;0.63;0.38;;;12.40;97.90;;;;;;5011709;28;20239;-45
2024/02/05 04:03:35;;;;;;;1.40;0.47;;;12.40;97.90;;;;;;5011296;28;20519;-46
2024/02/05 04:06:01;;;;;;;0.68;0.40;;;12.30;98.30;;;;;;5011351;28;20029;-44
2024/02/05 04:08:26;;;;;;;0.32;0.30;;;12.30;98.00;;;;;;5011393;28;20030;-46
2024/02/05 04:10:52;;;;;;;0.85;0.40;;;12.30;98.10;;;;;;5011445;28;20380;-43
2024/02/05 04:13:18;;;;;;;0.65;0.30;;;12.30;98.10;;;;;;5011555;28;20125;-45
2024/02/05 04:15:43;;;;;;;0.50;0.38;;;12.30;98.20;;;;;;5011126;28;20030;-43
2024/02/05 04:18:10;;;;;;;0.55;0.30;;;12.20;98.20;;;;;;5011048;28;20026;-44
2024/02/05 04:20:35;;;;;;;0.90;0.30;;;12.20;98.20;;;;;;5011274;28;20034;-45
2024/02/05 04:23:01;;;;;;;0.60;0.30;;;12.10;98.60;;;;;;5011287;28;20029;-46
2024/02/05 04:25:28;;;;;;;0.40;0.30;;;12.10;98.30;;;;;;5010877;28;20507;-45
2024/02/05 04:27:54;;;;;;;0.52;0.43;;;12.10;98.30;;;;;;5011372;28;20056;-45
2024/02/05 04:30:29;;;;;;;0.85;0.40;;;12.10;98.40;;;;;;5011332;28;20021;-44
2024/02/05 04:32:58;;;;;;;0.63;0.40;;;12.10;98.40;;;;;;5011461;28;20026;-44
2024/02/05 04:35:24;;;;;;;0.45;0.35;;;12.00;98.50;;;;;;5012364;28;20032;-45
2024/02/05 04:37:50;;;;;;;1.25;0.40;;;12.00;98.50;;;;;;5014428;28;20105;-45
2024/02/05 04:40:15;;;;;;;0.20;0.20;;;12.00;98.50;;;;;;5014512;28;20022;-43
2024/02/05 04:42:41;;;;;;;0.30;0.30;;;12.00;98.60;;;;;;5014439;28;20030;-46
2024/02/05 04:45:07;;;;;;;0.73;0.30;;;12.00;98.60;;;;;;5014521;28;20388;-46
2024/02/05 04:47:33;;;;;;;1.17;0.25;;;11.90;98.60;;;;;;5014273;28;20096;-46
2024/02/05 04:50:00;;;;;;;0.40;0.30;;;11.90;98.70;;;;;;5014528;28;20038;-45
2024/02/05 04:52:26;;;;;;;0.75;0.30;;;11.90;98.70;;;;;;5014745;28;20034;-42
2024/02/05 04:54:51;;;;;;;0.30;0.20;;;11.90;98.80;;;;;;5014157;28;20431;-46
2024/02/05 04:57:18;;;;;;;0.38;0.20;;;11.90;98.80;;;;;;5014410;28;20100;-44
2024/02/05 04:59:43;;;;;;;0.40;0.30;;;11.80;98.80;;;;;;5014353;28;20069;-42
2024/02/05 05:02:09;;;;;;;0.60;0.40;;;11.80;98.80;;;;;;5014272;28;20021;-46
2024/02/05 05:04:36;;;;;;;0.52;0.35;;;11.80;98.90;;;;;;5014301;28;20037;-45
2024/02/05 05:07:02;;;;;;;0.50;0.40;;;11.80;98.90;;;;;;5014019;28;20545;-45
2024/02/05 05:09:28;;;;;;;0.30;0.20;;;11.80;98.90;;;;;;5013991;28;20029;-46
2024/02/05 05:11:54;;;;;;;0.95;0.38;;;11.80;99.00;;;;;;5014208;28;20392;-44
2024/02/05 05:14:19;;;;;;;0.70;0.30;;;11.80;99.00;;;;;;5013717;28;20021;-45
2024/02/05 05:16:45;;;;;;;0.68;0.30;;;11.80;99.00;;;;;;5013694;28;20055;-46
2024/02/05 05:19:11;;;;;;;0.60;0.30;;;11.70;99.20;;;;;;5014109;28;20066;-44
2024/02/05 05:21:36;;;;;;;0.55;0.40;;;11.70;99.00;;;;;;5014179;28;20029;-45
2024/02/05 05:24:02;;;;;;;0.43;0.20;;;11.70;99.40;;;;;;5013735;28;20101;-41
2024/02/05 05:26:29;;;;;;;0.40;0.30;;;11.70;99.10;;;;;;5014073;28;20132;-42
2024/02/05 05:28:55;;;;;;;0.63;0.30;;;11.70;99.10;;;;;;5013616;28;20253;-46
2024/02/05 05:31:20;;;;;;;0.63;0.40;;;11.60;99.10;;;;;;5013646;28;20029;-44
2024/02/05 05:33:46;;;;;;;0.50;0.30;;;11.70;99.20;;;;;;5013478;28;20555;-45
2024/02/05 05:36:12;;;;;;;0.20;0.20;;;11.60;99.20;;;;;;5013466;28;20034;-44
2024/02/05 05:38:38;;;;;;;0.45;0.20;;;11.60;99.20;;;;;;5013224;28;20033;-46
2024/02/05 05:41:04;;;;;;;0.77;0.43;;;11.60;99.30;;;;;;5013363;28;20404;-43
2024/02/05 05:43:30;;;;;;;0.55;0.30;;;11.60;99.30;;;;;;5013364;28;20022;-45
2024/02/05 05:45:56;;;;;;;0.20;0.20;;;11.60;99.10;;;;;;5013053;28;20029;-45
2024/02/05 05:48:22;;;;;;;0.47;0.20;;;11.50;99.00;;;;;;5013414;28;20045;-44
2024/02/05 05:50:48;;;;;;;0.80;0.38;;;11.50;99.00;;;;;;5013003;28;20030;-45
2024/02/05 05:53:14;;;;;;;0.60;0.30;;;11.50;99.00;;;;;;5013635;28;20041;-46
2024/02/05 05:55:41;;;;;;;0.38;0.17;;;11.50;99.10;;;;;;5012980;28;20030;-45
2024/02/05 05:58:07;;;;;;;1.10;0.40;;;11.50;99.10;;;;;;5013130;28;20054;-46
2024/02/05 06:00:33;;;;;;;0.85;0.30;;;11.50;99.10;;;;;;5013686;28;20061;-45
2024/02/05 06:02:58;;;;;;;1.13;0.40;;;11.40;99.10;;;;;;5013532;28;20033;-45
2024/02/05 06:05:24;;;;;;;0.95;0.38;;;11.40;99.20;;;;;;5012695;28;20022;-45
2024/02/05 06:07:49;;;;;;;0.50;0.25;;;11.40;99.20;;;;;;5012681;28;20156;-45
2024/02/05 06:10:15;;;;;;;1.05;0.40;;;11.40;99.30;;;;;;5013174;28;20076;-45
2024/02/05 06:12:44;;;;;;;1.00;0.50;;;11.40;99.30;;;;;;5012633;28;20499;-45
2024/02/05 06:15:11;;;;;;;0.60;0.40;;;11.40;99.30;;;;;;5012505;28;20365;-45
2024/02/05 06:17:37;;;;;;;0.98;0.40;;;11.40;99.30;;;;;;5012596;28;20021;-45
2024/02/05 06:20:05;;;;;;;0.32;0.30;;;11.40;99.30;;;;;;5012555;28;20022;-46
2024/02/05 06:22:31;;;;;;;0.50;0.30;;;11.30;99.40;;;;;;5012577;28;20495;-46
2024/02/05 06:24:57;;;;;;;1.27;0.43;;;11.30;99.40;;;;;;5012232;28;20030;-45
2024/02/05 06:27:22;;;;;;;0.60;0.20;;;11.30;99.40;;;;;;5012431;28;20026;-46
2024/02/05 06:29:48;;;;;;;0.35;0.30;;;11.30;99.40;;;;;;5011211;28;20029;-45
2024/02/05 06:32:14;;;;;;;1.98;0.52;;;11.30;99.50;;;;;;5012544;28;20030;-44
2024/02/05 06:34:39;;;;;;;0.30;0.30;;;11.30;99.50;;;;;;5012630;28;20026;-45
2024/02/05 06:37:05;;;;;;;0.28;0.20;;;11.30;99.50;;;;;;5012654;28;20034;-42
2024/02/05 06:39:31;;;;;;;1.63;0.43;;;11.30;99.50;;;;;;5012189;28;20396;-42
2024/02/05 06:41:56;;;;;;;0.40;0.30;;;11.30;99.50;;;;;;5012316;28;20057;-44
2024/02/05 06:44:22;;;;;;;0.30;0.30;;;11.20;99.50;;;;;;5012806;28;20028;-43
2024/02/05 06:46:48;;;;;;;1.50;0.30;;;11.20;99.60;;;;;;5012196;28;20104;-44
2024/02/05 06:49:14;;;;;;;0.47;0.38;;;11.30;99.60;;;;;;5012285;28;20029;-45
2024/02/05 06:51:41;;;;;;;0.40;0.40;;;11.20;99.60;;;;;;5012051;28;20030;-45
2024/02/05 06:54:07;;;;;;;0.60;0.22;;;11.30;99.70;;;;;;5012303;28;20373;-44
2024/02/05 06:56:33;;;;;;;0.32;0.25;;;11.20;99.70;;;;;;5011982;28;20493;-44
2024/02/05 06:58:59;;;;;;;1.35;0.47;;;11.20;99.70;;;;;;5011694;28;20022;-45
2024/02/05 07:01:28;;;;;;;0.40;0.20;;;11.20;99.80;;;;;;5012125;28;20072;-45
2024/02/05 07:03:54;;;;;;;0.88;0.35;;;11.20;99.90;;;;;;5011852;28;20041;-45
2024/02/05 07:06:19;;;;;;;0.32;0.17;;;11.30;99.90;;;;;;5012121;28;20484;-45
2024/02/05 07:08:46;;;;;;;0.10;0.10;;;11.20;99.90;;;;;;5011789;28;20531;-46
2024/02/05 07:11:12;;;;;;;0.40;0.20;;;11.30;99.90;;;;;;5011791;28;20121;-45
2024/02/05 07:13:38;;;;;;;0.60;0.30;;;11.30;99.90;;;;;;5012230;28;20412;-46
2024/02/05 07:16:14;;;;;;;0.35;0.25;;;11.40;99.90;;;;;;5012163;28;20105;-45
2024/02/05 07:18:40;;;;;;;0.32;0.20;;;11.40;99.90;;;;;;5011946;28;20021;-45
2024/02/05 07:21:06;;;;;;;0.47;0.20;;;11.50;99.90;;;;;;5011740;28;20104;-45
2024/02/05 07:23:32;;;;;;;0.20;0.20;;;11.60;99.90;;;;;;5011760;28;20157;-46
2024/02/05 07:25:58;;;;;;;0.38;0.25;;;11.70;99.90;;;;;;5011686;28;20080;-45
2024/02/05 07:28:23;;;;;;;0.50;0.30;;;11.80;99.90;;;;;;5011732;28;20030;-45
2024/02/05 07:30:49;;;;;;;0.73;0.30;;;11.90;99.90;;;;;;5011745;28;20480;-45
2024/02/05 07:33:15;;;;;;;0.25;0.20;;;12.00;99.90;;;;;;5011625;28;20034;-44
2024/02/05 07:35:40;;;;;;;0.35;0.10;;;12.10;99.80;;;;;;5011525;28;20101;-45
2024/02/05 07:38:06;;;;;;;0.77;0.43;;;12.20;99.70;;;;;;5011934;28;20034;-43
2024/02/05 07:40:32;;;;;;;0.75;0.30;;;12.30;99.50;;;;;;5011539;28;20025;-46
2024/02/05 07:42:57;;;;;;;0.32;0.20;;;12.40;99.30;;;;;;5011932;28;20551;-44
2024/02/05 07:45:23;;;;;;;0.45;0.30;;;12.50;99.20;;;;;;5011732;28;20036;-46
2024/02/05 07:47:49;;;;;;;0.57;0.30;;;12.60;99.00;;;;;;5011507;28;20362;-45
2024/02/05 07:50:14;;;;;;;1.33;0.28;;;12.70;98.90;;;;;;5011387;28;20495;-45
2024/02/05 07:52:40;;;;;;;0.45;0.40;;;12.80;98.70;;;;;;5011396;28;20018;-45
2024/02/05 07:55:06;;;;;;;0.57;0.38;;;12.80;98.50;;;;;;5011163;28;20488;-45
2024/02/05 07:57:31;;;;;;;1.00;0.47;;;13.00;98.40;;;;;;5011288;28;20026;-45
2024/02/05 08:00:00;;;;;;;0.20;0.10;;;13.00;98.20;;;;;;5011769;28;20026;-43
2024/02/05 08:02:26;;;;;;;0.75;0.30;;;13.10;98.10;;;;;;5011260;28;20029;-45
2024/02/05 08:04:52;;;;;;;0.50;0.20;;;13.20;98.00;;;;;;5011407;28;20022;-45
2024/02/05 08:07:18;;;;;;;0.93;0.43;;;13.30;97.90;;;;;;5011176;28;20033;-45
2024/02/05 08:09:44;;;;;;;1.27;0.43;;;13.40;97.80;;;;;;5011240;28;20060;-46
2024/02/05 08:12:12;;;;;;;0.20;0.20;;;13.50;97.70;;;;;;5015212;28;20450;-46
2024/02/05 08:14:38;;;;;;;0.98;0.30;;;13.60;97.60;;;;;;5015136;28;20053;-46
2024/02/05 08:17:03;;;;;;;0.43;0.28;;;13.70;97.50;;;;;;5015136;28;20119;-44
2024/02/05 08:19:29;;;;;;;0.90;0.20;;;13.70;97.40;;;;;;5015045;28;20022;-45
2024/02/05 08:21:55;;;;;;;1.33;0.40;;;13.90;97.30;;;;;;5015240;28;20030;-46
2024/02/05 08:24:20;;;;;;;2.63;0.40;;;13.90;97.00;;;;;;5014530;28;20080;-45
2024/02/05 08:26:46;;;;;;;0.93;0.50;;;14.00;96.80;;;;;;5014797;28;20033;-44
2024/02/05 08:29:12;;;;;;;1.05;0.50;;;14.10;96.60;;;;;;5014684;28;20381;-46
2024/02/05 08:31:37;;;;;;;2.80;0.65;;;14.10;96.50;;;;;;5014734;28;20021;-46
2024/02/05 08:34:03;;;;;;;1.40;0.50;;;14.30;96.40;;;;;;5015065;28;20508;-46
2024/02/05 08:36:31;;;;;;;0.57;0.28;;;14.30;96.30;;;;;;5014424;28;20030;-45
2024/02/05 08:38:57;;;;;;;1.85;0.60;;;14.50;96.20;;;;;;5013181;28;20072;-45
2024/02/05 08:41:22;;;;;;;0.73;0.22;;;14.50;96.10;;;;;;5014634;28;20026;-45
2024/02/05 08:43:48;;;;;;;1.08;0.50;;;14.60;96.00;;;;;;5015253;28;20025;-46
2024/02/05 08:46:14;;;;;;;0.70;0.40;;;14.70;95.90;;;;;;5015453;28;20030;-46
2024/02/05 08:48:40;;;;;;;2.65;0.50;;;14.80;96.10;;;;;;5014567;28;20113;-46
2024/02/05 08:51:05;;;;;;;0.82;0.50;;;14.90;95.70;;;;;;5014575;28;20097;-46
2024/02/05 08:53:31;;;;;;;0.60;0.30;;;15.00;95.60;;;;;;5015155;28;20030;-46
2024/02/05 08:55:57;;;;;;;1.48;0.40;;;15.10;95.50;;;;;;5014450;28;20033;-46
2024/02/05 08:58:22;;;;;;;0.57;0.30;;;15.20;95.40;;;;;;5015554;28;20033;-46
2024/02/05 09:00:49;;;;;;;3.00;0.45;;;15.30;95.30;;;;;;5014523;28;20473;-46
2024/02/05 09:03:16;;;;;;;1.20;0.40;;;15.40;95.20;;;;;;5014564;28;20025;-46
2024/02/05 09:05:42;;;;;;;1.45;0.50;;;15.50;95.10;;;;;;5013815;28;20075;-47
2024/02/05 09:08:08;;;;;;;0.30;0.25;;;15.60;95.00;;;;;;5014161;28;20030;-46
2024/02/05 09:10:36;;;;;;;0.82;0.30;;;15.70;94.90;;;;;;5014719;28;20492;-45
2024/02/05 09:13:02;;;;;;;1.35;0.30;;;15.80;94.80;;;;;;5014044;28;20040;-46
2024/02/05 09:15:29;;;;;;;2.15;0.40;;;15.90;94.70;;;;;;5013841;28;20395;-46
2024/02/05 09:17:55;;;;;;;0.60;0.40;;;16.00;94.60;;;;;;5014024;28;20022;-45
2024/02/05 09:20:21;;;;;;;0.98;0.60;;;16.10;94.40;;;;;;5013959;28;20077;-46
2024/02/05 09:22:48;;;;;;;1.45;0.45;;;16.20;94.30;;;;;;5013528;28;20072;-46
2024/02/05 09:25:13;;;;;;;1.23;0.40;;;16.30;94.20;;;;;;5014050;28;20512;-46
2024/02/05 09:27:39;;;;;;;0.35;0.30;;;16.40;94.10;;;;;;5013562;28;20038;-45
2024/02/05 09:30:06;;;;;;;1.15;0.40;;;16.40;94.00;;;;;;5013568;28;20113;-45
2024/02/05 09:32:33;;;;;;;0.65;0.40;;;16.50;93.90;;;;;;5013402;28;20559;-46
2024/02/05 09:34:59;;;;;;;1.40;0.40;;;16.60;93.80;;;;;;5013794;28;20034;-45
2024/02/05 09:37:24;;;;;;;0.68;0.40;;;16.70;93.70;;;;;;5013598;28;20396;-46
2024/02/05 09:39:50;;;;;;;1.65;0.45;;;16.80;93.60;;;;;;5013306;28;20391;-46
2024/02/05 09:42:16;;;;;;;0.70;0.20;;;16.80;93.40;;;;;;5014874;28;20496;-46
2024/02/05 09:44:45;;;;;;;0.77;0.35;;;16.90;93.40;;;;;;5014731;28;20476;-45
2024/02/05 09:47:17;;;;;;;0.75;0.30;;;17.00;93.20;;;;;;5013025;28;20492;-46
2024/02/05 09:49:47;;;;;;;0.50;0.28;;;17.10;93.20;;;;;;5014318;28;20038;-45
2024/02/05 09:52:13;;;;;;;1.23;0.35;;;17.10;93.10;;;;;;5014288;28;20119;-46
2024/02/05 09:54:41;;;;;;;0.82;0.32;;;17.20;93.00;;;;;;5013118;28;20133;-46
2024/02/05 09:57:10;;;;;;;0.77;0.30;;;17.20;92.90;;;;;;5012920;28;20029;-46
2024/02/05 09:59:37;;;;;;;0.50;0.30;;;17.30;92.80;;;;;;5013858;28;20049;-46
2024/02/05 10:02:06;;;;;;;0.43;0.28;;;17.40;92.70;;;;;;5013860;28;20171;-46
2024/02/05 10:04:43;;;;;;;2.55;0.40;;;17.40;92.70;;;;;;5013655;28;20056;-46
2024/02/05 10:07:14;;;;;;;0.47;0.28;;;17.60;92.60;;;;;;5012749;28;20053;-45
2024/02/05 10:09:41;;;;;;;0.30;0.20;;;17.60;92.50;;;;;;5013629;28;20030;-46
2024/02/05 10:12:13;;;;;;;0.28;0.20;;;17.70;92.40;;;;;;5013448;28;20033;-45
2024/02/05 10:14:42;;;;;;;0.70;0.40;;;17.80;92.30;;;;;;5013305;28;20025;-46
2024/02/05 10:17:09;;;;;;;0.70;0.35;;;17.80;92.20;;;;;;5013057;28;20361;-46
2024/02/05 10:19:35;;;;;;;0.68;0.40;;;17.90;92.20;;;;;;5012532;28;20021;-46
2024/02/05 10:22:06;;;;;;;2.20;0.50;;;18.00;92.10;;;;;;5013384;28;20369;-45
2024/02/05 10:24:34;;;;;;;1.17;0.30;;;18.10;92.00;;;;;;5012914;28;20053;-47
2024/02/05 10:26:59;;;;;;;0.65;0.30;;;18.10;91.90;;;;;;5012474;28;20032;-45
2024/02/05 10:29:25;;;;;;;0.68;0.30;;;18.20;91.80;;;;;;5013515;28;20034;-45
2024/02/05 10:31:53;;;;;;;0.75;0.30;;;18.30;91.80;;;;;;5012402;28;20022;-45
2024/02/05 10:34:22;;;;;;;0.90;0.30;;;18.30;92.00;;;;;;5011595;28;20026;-45
2024/02/05 10:36:49;;;;;;;1.85;0.50;;;18.40;91.70;;;;;;5012440;28;20060;-44
2024/02/05 10:39:25;;;;;;;1.17;0.40;;;18.40;91.80;;;;;;5012123;28;20050;-44
2024/02/05 10:41:52;;;;;;;1.60;0.57;;;18.40;91.90;;;;;;5012255;28;20379;-45
2024/02/05 10:44:18;;;;;;;2.03;0.40;;;18.40;92.00;;;;;;5012167;28;20022;-44
2024/02/05 10:46:45;;;;;;;0.77;0.20;;;18.50;92.10;;;;;;5012077;28;20022;-44
2024/02/05 10:49:11;;;;;;;2.28;0.43;;;18.50;92.10;;;;;;5012374;28;20033;-44
2024/02/05 10:51:39;;;;;;;1.15;0.40;;;18.60;92.10;;;;;;5012053;28;20496;-44
2024/02/05 10:54:05;;;;;;;1.20;0.50;;;18.70;92.10;;;;;;5012031;28;20022;-44
2024/02/05 10:56:31;;;;;;;0.88;0.45;;;18.80;92.10;;;;;;5011883;28;20026;-44
2024/02/05 10:58:59;;;;;;;0.75;0.30;;;18.90;92.10;;;;;;5011878;28;20072;-45
2024/02/05 11:01:35;;;;;;;0.90;0.40;;;19.10;92.00;;;;;;5012800;28;20422;-44
2024/02/05 11:04:03;;;;;;;1.13;0.43;;;19.40;91.60;;;;;;5012070;28;22191;-44
2024/02/05 11:06:37;;;;;;;1.63;0.50;;;19.60;91.10;;;;;;5012303;28;20478;-45
2024/02/05 11:09:07;;;;;;;1.45;0.35;;;19.90;90.70;;;;;;5012068;28;20022;-45
2024/02/05 11:11:33;;;;;;;1.45;0.40;;;20.20;90.40;;;;;;5011972;28;20030;-45
2024/02/05 11:14:05;;;;;;;1.80;0.47;;;20.40;90.30;;;;;;5011795;28;20076;-45
2024/02/05 11:16:31;;;;;;;1.90;0.60;;;20.60;89.40;;;;;;5011595;28;20026;-45
2024/02/05 11:18:59;;;;;;;1.23;0.60;;;20.80;88.30;;;;;;5012064;28;20049;-45
2024/02/05 11:21:30;;;;;;;1.60;0.52;;;21.20;87.40;;;;;;5012168;28;20018;-45
2024/02/05 11:23:57;;;;;;;1.80;0.50;;;21.70;86.50;;;;;;5011929;28;20489;-45
2024/02/05 11:26:24;;;;;;;0.77;0.20;;;22.00;87.40;;;;;;5012035;28;20037;-44
2024/02/05 11:28:51;;;;;;;1.30;0.47;;;21.90;87.40;;;;;;5011504;28;20381;-46
2024/02/05 11:31:18;;;;;;;0.82;0.40;;;21.80;87.70;;;;;;5011545;28;20025;-45
2024/02/05 11:33:44;;;;;;;2.00;0.55;;;21.70;87.70;;;;;;5011744;28;20496;-45
2024/02/05 11:36:13;;;;;;;2.70;0.40;;;21.70;87.70;;;;;;5011539;28;20029;-44
2024/02/05 11:38:42;;;;;;;1.92;0.45;;;21.80;87.60;;;;;;5011309;28;20044;-45
2024/02/05 11:41:08;;;;;;;1.20;0.30;;;21.80;87.30;;;;;;5011566;28;20076;-45
2024/02/05 11:43:34;;;;;;;1.70;0.50;;;21.80;87.10;;;;;;5011551;28;20029;-46
2024/02/05 11:46:01;;;;;;;0.90;0.35;;;21.80;86.90;;;;;;5015252;28;20076;-45
2024/02/05 11:48:28;;;;;;;1.23;0.47;;;21.80;86.50;;;;;;5015706;28;20467;-45
2024/02/05 11:50:53;;;;;;;0.55;0.30;;;21.90;86.10;;;;;;5015469;28;20395;-46
2024/02/05 11:53:20;;;;;;;1.40;0.63;;;22.00;85.80;;;;;;5015379;28;20025;-44
2024/02/05 11:55:46;;;;;;;1.27;0.43;;;22.10;86.20;;;;;;5015193;28;20034;-45
2024/02/05 11:58:12;;;;;;;0.93;0.45;;;22.50;85.00;;;;;;5015224;28;20034;-45
2024/02/05 12:00:38;;;;;;;2.20;0.50;;;22.60;84.80;;;;;;5015184;28;20026;-45
2024/02/05 12:03:07;;;;;;;2.58;0.65;;;22.60;84.30;;;;;;5015469;28;20410;-44
2024/02/05 12:05:34;;;;;;;1.10;0.40;;;22.60;84.00;;;;;;5016016;28;20037;-45
2024/02/05 12:08:03;;;;;;;0.90;0.35;;;22.60;83.60;;;;;;5015361;28;20021;-45
2024/02/05 12:10:29;;;;;;;1.40;0.50;;;22.60;83.20;;;;;;5014963;28;20018;-45
2024/02/05 12:12:55;;;;;;;1.15;0.50;;;22.70;83.00;;;;;;5014900;28;20101;-45
2024/02/05 12:15:29;;;;;;;0.50;0.30;;;22.70;82.60;;;;;;5014826;28;20026;-45
2024/02/05 12:18:01;;;;;;;1.13;0.40;;;22.80;82.50;;;;;;5014892;28;20014;-46
2024/02/05 12:20:27;;;;;;;0.85;0.40;;;22.80;82.50;;;;;;5015035;28;20033;-45
2024/02/05 12:22:53;;;;;;;0.88;0.47;;;22.80;82.30;;;;;;5014853;28;20022;-45
2024/02/05 12:25:20;;;;;;;1.70;0.50;;;22.90;82.20;;;;;;5014586;28;20480;-45
2024/02/05 12:27:47;;;;;;;2.50;0.60;;;22.90;82.00;;;;;;5014744;28;20301;-45
2024/02/05 12:30:13;;;;;;;0.93;0.50;;;22.90;81.90;;;;;;5015306;28;20026;-45
2024/02/05 12:32:39;;;;;;;2.90;0.73;;;22.90;81.80;;;;;;5015113;28;20033;-45
2024/02/05 12:35:05;;;;;;;3.15;0.50;;;22.90;81.70;;;;;;5015763;28;20072;-45
2024/02/05 12:37:31;;;;;;;3.45;0.60;;;22.90;81.60;;;;;;5014563;28;20014;-45
2024/02/05 12:39:57;;;;;;;2.08;0.45;;;23.00;81.40;;;;;;5014578;28;20029;-45
2024/02/05 12:42:26;;;;;;;1.65;0.50;;;23.00;81.10;;;;;;5014416;28;20028;-45
2024/02/05 12:44:52;;;;;;;1.90;0.55;;;23.10;80.90;;;;;;5014324;28;20030;-46